Aledo, Texas
Current Conditions -  °F | °C
As of 7:52 AM on Friday 31 Oct 2014 (Local Time) from KNFW Reporting Station
Clear Clear  
Wind Chill: 13°   Ceiling: Unl
Heat Index: 13°   Visibility: 10mi
Dew Point:   Wind: 8mph
Humidity: 64%   Direction: 340°NNW
Pressure: 30.33"   Gusts: NA
Location:  32.7°N, 97.6°W
Report Text: KNFW 311252Z COR 34007KT 10SM CLR 13/06 A3033 RMK SLP254 T01300064
Loading
Personal Weather Stations






























Interactive Weather Map
Tropical Storm Tracking
New forecast layout! Learn more

10-Day Weather Forecast

Advertisements
Track Severe Weather on mobile